Ana Sayfa
METAR-TAF:

METAR-TAF

Havaalanları :

Porto Alegre, Rio Grande do Sul, Brezilya

Enlem: 30-00S, Boylam: 051-11W, yükseklik: 3 m

METAR: eksik

Saat: 09:51 (12:51 UTC)

Tahmin

Rapor saat 09:00 UTC de 3 saat ve 51 dakika önce yapıldı.
Ayın 29'si saat 12 UTC'den ayın 30'si saat 12 UTC'ye kadar geçerli Tahmin
Rüzgar güney/güneydoğudan 5 kt
Görüş mesafesi 10 km veya daha fazla
1000 ft yükseklikte parçalı bulutlu
2000 ft yükseklikte parçalı bulutlu
Dönüşüyor
ayın 29'si saat 18 UTC'den ayın 29'si saat 20 UTC'ye kadar
2500 ft yükseklikte parçalı bulutlu
Dönüşüyor
ayın 30'si saat 04 UTC'den ayın 30'si saat 06 UTC'ye kadar
Görüş mesafesi: 4000 m
500 ft yükseklikte parçalı çok bulutlu
Pus

TAF: SBPA 290900Z 2912/3012 16005KT 9999 SCT010 SCT020 TX18/2917Z TN08/3009Z BECMG 2918/2920 SCT025 BECMG 3004/3006 4000 BR BKN005 RMK PEU

4.000'den fazla havaalanı için hava durumu gözlemleri ve tahminleri (METAR ve TAF raporları).

Kullanılabilir istasyonlar harita üzerinde sarı ve kırmızı noktalarla gösterilir.

İstasyonun adını görmek için fareyi noktanın üzerinde gezdirin.

Sonrasında hava gözlem ve tahminlerini görmek için tıklayın.

Haritayı değiştirmek için: yaklaştırmak için siyah artı işaretli yeşil düğmeye ve uzaklaştırmak için de eksi işaretli düğmeye hızla tıklayın; bitişik haritalar için yeşil okları kullanın.


METAR-TAF: